sensor_id;sensor_type;location;lat;lon;timestamp;temperature;humidity
24144;DHT22;12307;50.828;6.080;2023-07-16T00:00:00;23.40;65.90
24144;DHT22;12307;50.828;6.080;2023-07-16T00:02:26;23.40;66.00
24144;DHT22;12307;50.828;6.080;2023-07-16T00:04:52;23.40;66.00
24144;DHT22;12307;50.828;6.080;2023-07-16T00:07:19;23.40;66.00
24144;DHT22;12307;50.828;6.080;2023-07-16T00:09:44;23.40;66.00
24144;DHT22;12307;50.828;6.080;2023-07-16T00:12:10;23.40;66.00
24144;DHT22;12307;50.828;6.080;2023-07-16T00:14:36;23.40;66.00
24144;DHT22;12307;50.828;6.080;2023-07-16T00:17:02;23.40;66.10
24144;DHT22;12307;50.828;6.080;2023-07-16T00:19:27;23.40;66.10
24144;DHT22;12307;50.828;6.080;2023-07-16T00:21:53;23.40;66.10
24144;DHT22;12307;50.828;6.080;2023-07-16T00:24:20;23.40;66.10
24144;DHT22;12307;50.828;6.080;2023-07-16T00:26:46;23.40;66.20
24144;DHT22;12307;50.828;6.080;2023-07-16T00:29:12;23.30;66.10
24144;DHT22;12307;50.828;6.080;2023-07-16T00:31:37;23.30;66.20
24144;DHT22;12307;50.828;6.080;2023-07-16T00:34:03;23.30;66.20
24144;DHT22;12307;50.828;6.080;2023-07-16T00:36:29;23.30;66.20
24144;DHT22;12307;50.828;6.080;2023-07-16T00:38:54;23.30;66.20
24144;DHT22;12307;50.828;6.080;2023-07-16T00:41:21;23.30;66.20
24144;DHT22;12307;50.828;6.080;2023-07-16T00:43:47;23.30;66.30
24144;DHT22;12307;50.828;6.080;2023-07-16T00:46:13;23.30;66.30
24144;DHT22;12307;50.828;6.080;2023-07-16T00:48:40;23.30;66.30
24144;DHT22;12307;50.828;6.080;2023-07-16T00:51:06;23.30;66.30
24144;DHT22;12307;50.828;6.080;2023-07-16T00:53:32;23.20;66.30
24144;DHT22;12307;50.828;6.080;2023-07-16T00:55:58;23.20;67.10
24144;DHT22;12307;50.828;6.080;2023-07-16T00:58:25;23.20;66.30
24144;DHT22;12307;50.828;6.080;2023-07-16T01:00:51;23.20;66.30
24144;DHT22;12307;50.828;6.080;2023-07-16T01:03:17;23.20;66.40
24144;DHT22;12307;50.828;6.080;2023-07-16T01:05:49;23.20;66.40
24144;DHT22;12307;50.828;6.080;2023-07-16T01:08:21;23.20;66.50
24144;DHT22;12307;50.828;6.080;2023-07-16T01:10:52;23.20;66.50
24144;DHT22;12307;50.828;6.080;2023-07-16T01:13:19;23.20;66.50
24144;DHT22;12307;50.828;6.080;2023-07-16T01:15:46;23.20;66.50
24144;DHT22;12307;50.828;6.080;2023-07-16T01:18:12;23.20;66.50
24144;DHT22;12307;50.828;6.080;2023-07-16T01:20:38;23.20;67.40
24144;DHT22;12307;50.828;6.080;2023-07-16T01:23:27;23.20;66.60
24144;DHT22;12307;50.828;6.080;2023-07-16T01:26:20;23.20;66.60
24144;DHT22;12307;50.828;6.080;2023-07-16T01:31:55;23.20;66.60
24144;DHT22;12307;50.828;6.080;2023-07-16T01:34:21;23.20;66.70
24144;DHT22;12307;50.828;6.080;2023-07-16T01:36:48;23.10;66.60
24144;DHT22;12307;50.828;6.080;2023-07-16T01:39:14;23.10;67.50
24144;DHT22;12307;50.828;6.080;2023-07-16T01:41:40;23.10;66.70
24144;DHT22;12307;50.828;6.080;2023-07-16T01:44:06;23.10;66.70
24144;DHT22;12307;50.828;6.080;2023-07-16T01:46:32;23.10;66.70
24144;DHT22;12307;50.828;6.080;2023-07-16T01:48:59;23.10;66.80
24144;DHT22;12307;50.828;6.080;2023-07-16T01:51:25;23.10;66.80
24144;DHT22;12307;50.828;6.080;2023-07-16T01:53:50;23.10;66.80
24144;DHT22;12307;50.828;6.080;2023-07-16T01:56:16;23.10;66.80
24144;DHT22;12307;50.828;6.080;2023-07-16T01:58:42;23.10;66.80
24144;DHT22;12307;50.828;6.080;2023-07-16T02:01:08;23.10;66.80
24144;DHT22;12307;50.828;6.080;2023-07-16T02:03:33;23.10;66.90
24144;DHT22;12307;50.828;6.080;2023-07-16T02:06:00;23.10;66.90
24144;DHT22;12307;50.828;6.080;2023-07-16T02:08:26;23.10;66.90
24144;DHT22;12307;50.828;6.080;2023-07-16T02:10:52;23.00;66.80
24144;DHT22;12307;50.828;6.080;2023-07-16T02:13:18;23.00;66.80
24144;DHT22;12307;50.828;6.080;2023-07-16T02:15:43;23.00;66.90
24144;DHT22;12307;50.828;6.080;2023-07-16T02:18:09;23.00;66.90
24144;DHT22;12307;50.828;6.080;2023-07-16T02:20:35;23.00;67.00
24144;DHT22;12307;50.828;6.080;2023-07-16T02:23:02;23.00;67.00
24144;DHT22;12307;50.828;6.080;2023-07-16T02:25:28;23.00;67.00
24144;DHT22;12307;50.828;6.080;2023-07-16T02:27:54;23.00;67.00
24144;DHT22;12307;50.828;6.080;2023-07-16T02:30:20;23.00;67.00
24144;DHT22;12307;50.828;6.080;2023-07-16T02:32:45;23.00;67.00
24144;DHT22;12307;50.828;6.080;2023-07-16T02:35:11;23.00;67.10
24144;DHT22;12307;50.828;6.080;2023-07-16T02:37:37;23.00;67.10
24144;DHT22;12307;50.828;6.080;2023-07-16T02:40:06;23.00;67.10
24144;DHT22;12307;50.828;6.080;2023-07-16T02:42:32;23.00;67.10
24144;DHT22;12307;50.828;6.080;2023-07-16T02:44:58;23.00;67.10
24144;DHT22;12307;50.828;6.080;2023-07-16T02:47:24;22.90;67.10
24144;DHT22;12307;50.828;6.080;2023-07-16T02:49:50;22.90;67.10
24144;DHT22;12307;50.828;6.080;2023-07-16T02:52:17;23.00;68.00
24144;DHT22;12307;50.828;6.080;2023-07-16T02:54:43;22.90;67.10
24144;DHT22;12307;50.828;6.080;2023-07-16T02:57:10;22.90;67.10
24144;DHT22;12307;50.828;6.080;2023-07-16T02:59:36;22.90;67.10
24144;DHT22;12307;50.828;6.080;2023-07-16T03:02:02;22.90;67.20
24144;DHT22;12307;50.828;6.080;2023-07-16T03:04:27;22.90;67.30
24144;DHT22;12307;50.828;6.080;2023-07-16T03:06:53;22.90;67.20
24144;DHT22;12307;50.828;6.080;2023-07-16T03:09:19;22.90;67.30
24144;DHT22;12307;50.828;6.080;2023-07-16T03:11:45;22.90;67.30
24144;DHT22;12307;50.828;6.080;2023-07-16T03:14:12;22.90;67.30
24144;DHT22;12307;50.828;6.080;2023-07-16T03:16:38;22.80;67.30
24144;DHT22;12307;50.828;6.080;2023-07-16T03:19:03;22.80;67.30
24144;DHT22;12307;50.828;6.080;2023-07-16T03:21:29;22.80;67.30
24144;DHT22;12307;50.828;6.080;2023-07-16T03:23:55;22.80;67.30
24144;DHT22;12307;50.828;6.080;2023-07-16T03:26:21;22.80;67.30
24144;DHT22;12307;50.828;6.080;2023-07-16T03:28:46;22.80;67.30
24144;DHT22;12307;50.828;6.080;2023-07-16T03:31:13;22.80;67.30
24144;DHT22;12307;50.828;6.080;2023-07-16T03:33:39;22.80;67.30
24144;DHT22;12307;50.828;6.080;2023-07-16T03:36:05;22.80;67.40
24144;DHT22;12307;50.828;6.080;2023-07-16T03:38:31;22.80;67.40
24144;DHT22;12307;50.828;6.080;2023-07-16T03:40:56;22.80;67.40
24144;DHT22;12307;50.828;6.080;2023-07-16T03:43:22;22.80;67.40
24144;DHT22;12307;50.828;6.080;2023-07-16T03:45:49;22.80;67.40
24144;DHT22;12307;50.828;6.080;2023-07-16T03:48:16;22.80;67.40
24144;DHT22;12307;50.828;6.080;2023-07-16T03:50:41;22.80;67.40
24144;DHT22;12307;50.828;6.080;2023-07-16T03:53:07;22.80;67.40
24144;DHT22;12307;50.828;6.080;2023-07-16T03:55:33;22.80;67.40
24144;DHT22;12307;50.828;6.080;2023-07-16T03:57:59;22.80;67.50
24144;DHT22;12307;50.828;6.080;2023-07-16T04:00:24;22.80;67.50
24144;DHT22;12307;50.828;6.080;2023-07-16T04:02:50;22.80;67.50
24144;DHT22;12307;50.828;6.080;2023-07-16T04:05:18;22.80;67.40
24144;DHT22;12307;50.828;6.080;2023-07-16T04:07:43;22.80;67.50
24144;DHT22;12307;50.828;6.080;2023-07-16T04:10:09;22.70;67.40
24144;DHT22;12307;50.828;6.080;2023-07-16T04:12:35;22.80;67.50
24144;DHT22;12307;50.828;6.080;2023-07-16T04:15:07;22.80;67.50
24144;DHT22;12307;50.828;6.080;2023-07-16T04:17:33;22.70;67.60
24144;DHT22;12307;50.828;6.080;2023-07-16T04:19:58;22.70;67.60
24144;DHT22;12307;50.828;6.080;2023-07-16T04:22:26;22.70;67.50
24144;DHT22;12307;50.828;6.080;2023-07-16T04:24:51;22.70;67.50
24144;DHT22;12307;50.828;6.080;2023-07-16T04:27:17;22.70;67.50
24144;DHT22;12307;50.828;6.080;2023-07-16T04:29:43;22.80;67.60
24144;DHT22;12307;50.828;6.080;2023-07-16T04:32:09;22.70;67.50
24144;DHT22;12307;50.828;6.080;2023-07-16T04:34:34;22.70;67.50
24144;DHT22;12307;50.828;6.080;2023-07-16T04:37:00;22.70;67.60
24144;DHT22;12307;50.828;6.080;2023-07-16T04:39:27;22.70;67.50
24144;DHT22;12307;50.828;6.080;2023-07-16T04:41:53;22.70;67.60
24144;DHT22;12307;50.828;6.080;2023-07-16T04:44:19;22.70;67.60
24144;DHT22;12307;50.828;6.080;2023-07-16T04:46:44;22.70;67.60
24144;DHT22;12307;50.828;6.080;2023-07-16T04:49:10;22.70;67.60
24144;DHT22;12307;50.828;6.080;2023-07-16T04:51:36;22.70;67.60
24144;DHT22;12307;50.828;6.080;2023-07-16T04:54:02;22.70;67.60
24144;DHT22;12307;50.828;6.080;2023-07-16T04:56:29;22.70;67.60
24144;DHT22;12307;50.828;6.080;2023-07-16T04:58:55;22.70;67.60
24144;DHT22;12307;50.828;6.080;2023-07-16T05:01:21;22.70;67.60
24144;DHT22;12307;50.828;6.080;2023-07-16T05:03:46;22.70;67.60
24144;DHT22;12307;50.828;6.080;2023-07-16T05:06:12;22.70;67.60
24144;DHT22;12307;50.828;6.080;2023-07-16T05:08:38;22.70;67.60
24144;DHT22;12307;50.828;6.080;2023-07-16T05:11:04;22.70;67.60
24144;DHT22;12307;50.828;6.080;2023-07-16T05:13:31;22.70;67.60
24144;DHT22;12307;50.828;6.080;2023-07-16T05:15:56;22.70;67.60
24144;DHT22;12307;50.828;6.080;2023-07-16T05:18:22;22.70;67.50
24144;DHT22;12307;50.828;6.080;2023-07-16T05:20:48;22.70;67.60
24144;DHT22;12307;50.828;6.080;2023-07-16T05:23:14;22.70;67.50
24144;DHT22;12307;50.828;6.080;2023-07-16T05:25:45;22.70;67.50
24144;DHT22;12307;50.828;6.080;2023-07-16T05:28:11;22.70;67.50
24144;DHT22;12307;50.828;6.080;2023-07-16T05:30:38;22.70;67.60
24144;DHT22;12307;50.828;6.080;2023-07-16T05:33:04;22.70;67.50
24144;DHT22;12307;50.828;6.080;2023-07-16T05:35:30;22.70;67.50
24144;DHT22;12307;50.828;6.080;2023-07-16T05:37:56;22.70;67.50
24144;DHT22;12307;50.828;6.080;2023-07-16T05:40:21;22.70;67.50
24144;DHT22;12307;50.828;6.080;2023-07-16T05:42:47;22.70;68.40
24144;DHT22;12307;50.828;6.080;2023-07-16T05:45:13;22.70;67.50
24144;DHT22;12307;50.828;6.080;2023-07-16T05:47:40;22.70;67.50
24144;DHT22;12307;50.828;6.080;2023-07-16T05:50:07;22.70;67.50
24144;DHT22;12307;50.828;6.080;2023-07-16T05:52:33;22.70;67.40
24144;DHT22;12307;50.828;6.080;2023-07-16T05:54:58;22.70;67.40
24144;DHT22;12307;50.828;6.080;2023-07-16T05:57:24;22.70;67.40
24144;DHT22;12307;50.828;6.080;2023-07-16T05:59:50;22.70;67.40
24144;DHT22;12307;50.828;6.080;2023-07-16T06:02:16;22.70;67.40
24144;DHT22;12307;50.828;6.080;2023-07-16T06:04:43;22.70;67.40
24144;DHT22;12307;50.828;6.080;2023-07-16T06:07:09;22.70;67.30
24144;DHT22;12307;50.828;6.080;2023-07-16T06:09:34;22.70;67.30
24144;DHT22;12307;50.828;6.080;2023-07-16T06:12:00;22.70;67.30
24144;DHT22;12307;50.828;6.080;2023-07-16T06:14:26;22.70;67.30
24144;DHT22;12307;50.828;6.080;2023-07-16T06:16:52;22.70;67.20
24144;DHT22;12307;50.828;6.080;2023-07-16T06:19:18;22.70;67.20
24144;DHT22;12307;50.828;6.080;2023-07-16T06:21:46;22.70;67.20
24144;DHT22;12307;50.828;6.080;2023-07-16T06:24:12;22.70;67.10
24144;DHT22;12307;50.828;6.080;2023-07-16T06:26:38;22.70;67.10
24144;DHT22;12307;50.828;6.080;2023-07-16T06:29:04;22.70;67.10
24144;DHT22;12307;50.828;6.080;2023-07-16T06:31:29;22.70;67.10
24144;DHT22;12307;50.828;6.080;2023-07-16T06:33:57;22.70;67.10
24144;DHT22;12307;50.828;6.080;2023-07-16T06:36:22;22.70;67.00
24144;DHT22;12307;50.828;6.080;2023-07-16T06:38:50;22.70;67.00
24144;DHT22;12307;50.828;6.080;2023-07-16T06:41:15;22.80;67.00
24144;DHT22;12307;50.828;6.080;2023-07-16T06:43:41;22.80;67.00
24144;DHT22;12307;50.828;6.080;2023-07-16T06:46:07;22.80;66.90
24144;DHT22;12307;50.828;6.080;2023-07-16T06:48:32;22.80;66.90
24144;DHT22;12307;50.828;6.080;2023-07-16T06:50:59;22.80;66.80
24144;DHT22;12307;50.828;6.080;2023-07-16T06:53:25;22.80;66.80
24144;DHT22;12307;50.828;6.080;2023-07-16T06:55:52;22.80;66.70
24144;DHT22;12307;50.828;6.080;2023-07-16T06:58:18;22.80;66.70
24144;DHT22;12307;50.828;6.080;2023-07-16T07:00:44;22.80;66.50
24144;DHT22;12307;50.828;6.080;2023-07-16T07:03:09;22.80;66.50
24144;DHT22;12307;50.828;6.080;2023-07-16T07:05:35;22.90;66.40
24144;DHT22;12307;50.828;6.080;2023-07-16T07:08:02;22.90;66.40
24144;DHT22;12307;50.828;6.080;2023-07-16T07:10:28;22.90;66.30
24144;DHT22;12307;50.828;6.080;2023-07-16T07:12:55;22.90;66.30
24144;DHT22;12307;50.828;6.080;2023-07-16T07:15:21;22.90;66.30
24144;DHT22;12307;50.828;6.080;2023-07-16T07:17:46;22.90;66.30
24144;DHT22;12307;50.828;6.080;2023-07-16T07:20:17;23.00;66.30
24144;DHT22;12307;50.828;6.080;2023-07-16T07:22:42;23.00;66.30
24144;DHT22;12307;50.828;6.080;2023-07-16T07:25:08;23.00;66.30
24144;DHT22;12307;50.828;6.080;2023-07-16T07:27:34;23.00;66.30
24144;DHT22;12307;50.828;6.080;2023-07-16T07:30:01;23.00;66.30
24144;DHT22;12307;50.828;6.080;2023-07-16T07:32:28;23.00;66.30
24144;DHT22;12307;50.828;6.080;2023-07-16T07:34:54;23.00;66.30
24144;DHT22;12307;50.828;6.080;2023-07-16T07:37:20;23.10;66.30
24144;DHT22;12307;50.828;6.080;2023-07-16T07:39:51;23.10;66.30
24144;DHT22;12307;50.828;6.080;2023-07-16T07:42:17;23.10;66.30
24144;DHT22;12307;50.828;6.080;2023-07-16T07:44:42;23.10;66.30
24144;DHT22;12307;50.828;6.080;2023-07-16T07:47:10;23.10;66.30
24144;DHT22;12307;50.828;6.080;2023-07-16T07:49:35;23.10;66.30
24144;DHT22;12307;50.828;6.080;2023-07-16T07:52:01;23.10;66.30
24144;DHT22;12307;50.828;6.080;2023-07-16T07:54:27;23.20;66.30
24144;DHT22;12307;50.828;6.080;2023-07-16T07:56:53;23.20;66.20
24144;DHT22;12307;50.828;6.080;2023-07-16T07:59:18;23.20;66.20
24144;DHT22;12307;50.828;6.080;2023-07-16T08:01:44;23.20;66.00
24144;DHT22;12307;50.828;6.080;2023-07-16T08:04:12;23.30;66.00
24144;DHT22;12307;50.828;6.080;2023-07-16T08:06:38;23.30;65.90
24144;DHT22;12307;50.828;6.080;2023-07-16T08:09:03;23.30;65.70
24144;DHT22;12307;50.828;6.080;2023-07-16T08:11:30;23.40;65.60
24144;DHT22;12307;50.828;6.080;2023-07-16T08:13:55;23.40;65.50
24144;DHT22;12307;50.828;6.080;2023-07-16T08:16:21;23.40;65.40
24144;DHT22;12307;50.828;6.080;2023-07-16T08:18:47;23.40;65.30
24144;DHT22;12307;50.828;6.080;2023-07-16T08:21:14;23.40;65.20
24144;DHT22;12307;50.828;6.080;2023-07-16T08:23:46;23.40;65.20
24144;DHT22;12307;50.828;6.080;2023-07-16T08:26:12;23.40;65.10
24144;DHT22;12307;50.828;6.080;2023-07-16T08:28:38;23.50;65.20
24144;DHT22;12307;50.828;6.080;2023-07-16T08:31:04;23.50;65.20
24144;DHT22;12307;50.828;6.080;2023-07-16T08:33:29;23.50;65.20
24144;DHT22;12307;50.828;6.080;2023-07-16T08:35:55;23.60;65.20
24144;DHT22;12307;50.828;6.080;2023-07-16T08:38:22;23.60;65.20
24144;DHT22;12307;50.828;6.080;2023-07-16T08:40:48;23.70;65.20
24144;DHT22;12307;50.828;6.080;2023-07-16T08:43:15;23.70;65.20
24144;DHT22;12307;50.828;6.080;2023-07-16T08:45:41;23.70;65.10
24144;DHT22;12307;50.828;6.080;2023-07-16T08:48:11;23.80;65.10
24144;DHT22;12307;50.828;6.080;2023-07-16T08:50:37;23.80;65.00
24144;DHT22;12307;50.828;6.080;2023-07-16T08:53:04;23.90;65.00
24144;DHT22;12307;50.828;6.080;2023-07-16T08:55:32;24.00;65.00
24144;DHT22;12307;50.828;6.080;2023-07-16T08:57:58;24.00;64.90
24144;DHT22;12307;50.828;6.080;2023-07-16T09:00:25;24.10;64.80
24144;DHT22;12307;50.828;6.080;2023-07-16T09:02:52;24.20;64.80
24144;DHT22;12307;50.828;6.080;2023-07-16T09:05:20;24.30;64.70
24144;DHT22;12307;50.828;6.080;2023-07-16T09:07:46;24.30;64.50
24144;DHT22;12307;50.828;6.080;2023-07-16T09:10:12;24.50;64.40
24144;DHT22;12307;50.828;6.080;2023-07-16T09:12:43;24.50;64.30
24144;DHT22;12307;50.828;6.080;2023-07-16T09:15:09;24.60;64.20
24144;DHT22;12307;50.828;6.080;2023-07-16T09:17:38;24.70;64.00
24144;DHT22;12307;50.828;6.080;2023-07-16T09:20:04;24.80;63.80
24144;DHT22;12307;50.828;6.080;2023-07-16T09:22:33;24.90;63.60
24144;DHT22;12307;50.828;6.080;2023-07-16T09:24:59;25.00;63.40
24144;DHT22;12307;50.828;6.080;2023-07-16T09:27:28;25.10;63.20
24144;DHT22;12307;50.828;6.080;2023-07-16T09:29:55;25.10;63.00
24144;DHT22;12307;50.828;6.080;2023-07-16T09:32:21;25.20;62.70
24144;DHT22;12307;50.828;6.080;2023-07-16T09:34:49;25.40;62.60
24144;DHT22;12307;50.828;6.080;2023-07-16T09:37:17;25.40;62.30
24144;DHT22;12307;50.828;6.080;2023-07-16T09:39:45;25.50;62.10
24144;DHT22;12307;50.828;6.080;2023-07-16T09:42:12;25.60;62.00
24144;DHT22;12307;50.828;6.080;2023-07-16T09:44:40;25.60;61.70
24144;DHT22;12307;50.828;6.080;2023-07-16T09:47:11;25.70;61.50
24144;DHT22;12307;50.828;6.080;2023-07-16T09:49:37;25.80;61.40
24144;DHT22;12307;50.828;6.080;2023-07-16T09:52:03;25.80;61.10
24144;DHT22;12307;50.828;6.080;2023-07-16T09:54:32;25.90;60.90
24144;DHT22;12307;50.828;6.080;2023-07-16T09:57:02;26.00;60.70
24144;DHT22;12307;50.828;6.080;2023-07-16T09:59:31;26.00;60.50
24144;DHT22;12307;50.828;6.080;2023-07-16T10:01:58;26.00;60.40
24144;DHT22;12307;50.828;6.080;2023-07-16T10:04:25;26.10;60.20
24144;DHT22;12307;50.828;6.080;2023-07-16T10:06:53;26.20;60.10
24144;DHT22;12307;50.828;6.080;2023-07-16T10:09:32;26.20;59.90
24144;DHT22;12307;50.828;6.080;2023-07-16T10:12:14;26.30;59.70
24144;DHT22;12307;50.828;6.080;2023-07-16T10:14:41;26.40;59.70
24144;DHT22;12307;50.828;6.080;2023-07-16T10:17:07;26.40;59.50
24144;DHT22;12307;50.828;6.080;2023-07-16T10:19:46;26.50;59.40
24144;DHT22;12307;50.828;6.080;2023-07-16T10:22:12;26.70;59.30
24144;DHT22;12307;50.828;6.080;2023-07-16T10:24:39;26.80;59.20
24144;DHT22;12307;50.828;6.080;2023-07-16T10:27:05;26.80;59.00
24144;DHT22;12307;50.828;6.080;2023-07-16T10:29:31;26.90;58.90
24144;DHT22;12307;50.828;6.080;2023-07-16T10:31:57;26.90;58.70
24144;DHT22;12307;50.828;6.080;2023-07-16T10:34:23;27.00;58.60
24144;DHT22;12307;50.828;6.080;2023-07-16T10:36:51;27.00;58.50
24144;DHT22;12307;50.828;6.080;2023-07-16T10:39:17;27.00;58.50
24144;DHT22;12307;50.828;6.080;2023-07-16T10:41:42;27.00;58.30
24144;DHT22;12307;50.828;6.080;2023-07-16T10:44:08;26.90;58.30
24144;DHT22;12307;50.828;6.080;2023-07-16T10:46:36;26.80;58.20
24144;DHT22;12307;50.828;6.080;2023-07-16T10:49:02;26.80;58.20
24144;DHT22;12307;50.828;6.080;2023-07-16T10:51:27;26.80;58.20
24144;DHT22;12307;50.828;6.080;2023-07-16T10:53:56;26.80;58.20
24144;DHT22;12307;50.828;6.080;2023-07-16T10:56:22;26.80;58.10
24144;DHT22;12307;50.828;6.080;2023-07-16T10:58:48;26.80;58.00
24144;DHT22;12307;50.828;6.080;2023-07-16T11:01:14;26.80;58.00
24144;DHT22;12307;50.828;6.080;2023-07-16T11:03:40;26.80;57.90
24144;DHT22;12307;50.828;6.080;2023-07-16T11:06:06;26.80;57.90
24144;DHT22;12307;50.828;6.080;2023-07-16T11:08:32;26.90;57.80
24144;DHT22;12307;50.828;6.080;2023-07-16T11:11:00;26.90;57.70
24144;DHT22;12307;50.828;6.080;2023-07-16T11:13:26;27.00;57.70
24144;DHT22;12307;50.828;6.080;2023-07-16T11:15:52;27.00;57.60
24144;DHT22;12307;50.828;6.080;2023-07-16T11:18:18;27.00;57.60
24144;DHT22;12307;50.828;6.080;2023-07-16T11:20:44;27.00;57.50
24144;DHT22;12307;50.828;6.080;2023-07-16T11:23:10;27.00;57.50
24144;DHT22;12307;50.828;6.080;2023-07-16T11:25:36;27.10;57.50
24144;DHT22;12307;50.828;6.080;2023-07-16T11:28:03;27.10;57.40
24144;DHT22;12307;50.828;6.080;2023-07-16T11:30:29;27.10;57.40
24144;DHT22;12307;50.828;6.080;2023-07-16T11:32:58;27.00;57.40
24144;DHT22;12307;50.828;6.080;2023-07-16T11:35:24;26.90;57.40
24144;DHT22;12307;50.828;6.080;2023-07-16T11:37:51;26.90;57.40
24144;DHT22;12307;50.828;6.080;2023-07-16T11:40:17;26.90;57.30
24144;DHT22;12307;50.828;6.080;2023-07-16T11:42:44;26.80;57.30
24144;DHT22;12307;50.828;6.080;2023-07-16T11:45:17;26.80;57.30
24144;DHT22;12307;50.828;6.080;2023-07-16T11:47:43;26.80;57.40
24144;DHT22;12307;50.828;6.080;2023-07-16T11:50:09;26.80;57.40
24144;DHT22;12307;50.828;6.080;2023-07-16T11:52:38;26.80;57.30
24144;DHT22;12307;50.828;6.080;2023-07-16T11:55:05;26.90;57.30
24144;DHT22;12307;50.828;6.080;2023-07-16T11:57:31;26.90;57.30
24144;DHT22;12307;50.828;6.080;2023-07-16T11:59:56;26.90;57.30
24144;DHT22;12307;50.828;6.080;2023-07-16T12:02:25;26.80;57.30
24144;DHT22;12307;50.828;6.080;2023-07-16T12:04:51;26.80;57.30
24144;DHT22;12307;50.828;6.080;2023-07-16T12:07:31;26.80;57.90
24144;DHT22;12307;50.828;6.080;2023-07-16T12:09:57;26.80;57.30
24144;DHT22;12307;50.828;6.080;2023-07-16T12:12:23;26.80;57.30
24144;DHT22;12307;50.828;6.080;2023-07-16T12:14:48;26.80;57.30
24144;DHT22;12307;50.828;6.080;2023-07-16T12:17:14;26.80;57.20
24144;DHT22;12307;50.828;6.080;2023-07-16T12:19:42;26.80;57.20
24144;DHT22;12307;50.828;6.080;2023-07-16T12:22:09;26.90;57.20
24144;DHT22;12307;50.828;6.080;2023-07-16T12:24:35;26.90;57.20
24144;DHT22;12307;50.828;6.080;2023-07-16T12:27:00;26.80;57.20
24144;DHT22;12307;50.828;6.080;2023-07-16T12:29:26;26.80;57.20
24144;DHT22;12307;50.828;6.080;2023-07-16T12:31:52;26.80;57.20
24144;DHT22;12307;50.828;6.080;2023-07-16T12:34:17;26.80;57.30
24144;DHT22;12307;50.828;6.080;2023-07-16T12:36:45;26.70;57.20
24144;DHT22;12307;50.828;6.080;2023-07-16T12:39:10;26.70;57.20
24144;DHT22;12307;50.828;6.080;2023-07-16T12:41:36;26.70;57.30
24144;DHT22;12307;50.828;6.080;2023-07-16T12:44:02;26.60;57.30
24144;DHT22;12307;50.828;6.080;2023-07-16T12:46:28;26.60;57.30
24144;DHT22;12307;50.828;6.080;2023-07-16T12:48:53;26.60;57.30
24144;DHT22;12307;50.828;6.080;2023-07-16T12:51:19;26.60;57.30
24144;DHT22;12307;50.828;6.080;2023-07-16T12:53:46;26.60;57.40
24144;DHT22;12307;50.828;6.080;2023-07-16T12:56:12;26.50;57.30
24144;DHT22;12307;50.828;6.080;2023-07-16T12:58:38;26.50;57.40
24144;DHT22;12307;50.828;6.080;2023-07-16T13:01:04;26.50;57.40
24144;DHT22;12307;50.828;6.080;2023-07-16T13:03:29;26.50;57.40
24144;DHT22;12307;50.828;6.080;2023-07-16T13:05:55;26.40;57.40
24144;DHT22;12307;50.828;6.080;2023-07-16T13:08:21;26.40;57.50
24144;DHT22;12307;50.828;6.080;2023-07-16T13:10:48;26.40;57.50
24144;DHT22;12307;50.828;6.080;2023-07-16T13:13:14;26.30;57.50
24144;DHT22;12307;50.828;6.080;2023-07-16T13:15:39;26.30;57.50
24144;DHT22;12307;50.828;6.080;2023-07-16T13:18:05;26.30;57.60
24144;DHT22;12307;50.828;6.080;2023-07-16T13:20:31;26.30;57.60
24144;DHT22;12307;50.828;6.080;2023-07-16T13:22:57;26.30;57.60
24144;DHT22;12307;50.828;6.080;2023-07-16T13:25:22;26.30;57.60
24144;DHT22;12307;50.828;6.080;2023-07-16T13:27:50;26.30;57.70
24144;DHT22;12307;50.828;6.080;2023-07-16T13:30:15;26.20;57.70
24144;DHT22;12307;50.828;6.080;2023-07-16T13:32:41;26.20;57.70
24144;DHT22;12307;50.828;6.080;2023-07-16T13:35:07;26.20;57.80
24144;DHT22;12307;50.828;6.080;2023-07-16T13:37:33;26.20;57.80
24144;DHT22;12307;50.828;6.080;2023-07-16T13:40:00;26.20;57.80
24144;DHT22;12307;50.828;6.080;2023-07-16T13:42:25;26.20;57.80
24144;DHT22;12307;50.828;6.080;2023-07-16T13:44:52;26.20;57.80
24144;DHT22;12307;50.828;6.080;2023-07-16T13:47:18;26.20;57.90
24144;DHT22;12307;50.828;6.080;2023-07-16T13:49:44;26.20;57.90
24144;DHT22;12307;50.828;6.080;2023-07-16T13:52:09;26.20;57.90
24144;DHT22;12307;50.828;6.080;2023-07-16T13:54:36;26.10;57.90
24144;DHT22;12307;50.828;6.080;2023-07-16T13:57:03;26.20;58.00
24144;DHT22;12307;50.828;6.080;2023-07-16T13:59:29;26.10;58.00
24144;DHT22;12307;50.828;6.080;2023-07-16T14:02:01;26.10;58.00
24144;DHT22;12307;50.828;6.080;2023-07-16T14:04:27;26.10;58.00
24144;DHT22;12307;50.828;6.080;2023-07-16T14:06:52;26.10;58.00
24144;DHT22;12307;50.828;6.080;2023-07-16T14:09:18;26.00;58.00
24144;DHT22;12307;50.828;6.080;2023-07-16T14:11:45;26.10;58.10
24144;DHT22;12307;50.828;6.080;2023-07-16T14:14:13;26.00;58.10
24144;DHT22;12307;50.828;6.080;2023-07-16T14:16:38;26.10;58.20
24144;DHT22;12307;50.828;6.080;2023-07-16T14:19:05;26.10;58.20
24144;DHT22;12307;50.828;6.080;2023-07-16T14:21:31;26.00;58.20
24144;DHT22;12307;50.828;6.080;2023-07-16T14:23:57;26.00;58.20
24144;DHT22;12307;50.828;6.080;2023-07-16T14:26:23;26.00;58.20
24144;DHT22;12307;50.828;6.080;2023-07-16T14:28:49;26.00;58.20
24144;DHT22;12307;50.828;6.080;2023-07-16T14:31:15;26.00;58.20
24144;DHT22;12307;50.828;6.080;2023-07-16T14:33:40;26.00;58.30
24144;DHT22;12307;50.828;6.080;2023-07-16T14:36:08;26.00;58.30
24144;DHT22;12307;50.828;6.080;2023-07-16T14:38:33;26.00;58.30
24144;DHT22;12307;50.828;6.080;2023-07-16T14:40:59;26.00;58.40
24144;DHT22;12307;50.828;6.080;2023-07-16T14:43:25;26.00;58.40
24144;DHT22;12307;50.828;6.080;2023-07-16T14:45:51;26.00;58.40
24144;DHT22;12307;50.828;6.080;2023-07-16T14:48:17;25.90;58.30
24144;DHT22;12307;50.828;6.080;2023-07-16T14:50:43;25.90;58.40
24144;DHT22;12307;50.828;6.080;2023-07-16T14:53:10;25.90;58.40
24144;DHT22;12307;50.828;6.080;2023-07-16T14:55:38;25.90;58.40
24144;DHT22;12307;50.828;6.080;2023-07-16T14:58:04;25.90;58.50
24144;DHT22;12307;50.828;6.080;2023-07-16T15:00:29;25.90;58.50
24144;DHT22;12307;50.828;6.080;2023-07-16T15:02:55;25.90;58.50
24144;DHT22;12307;50.828;6.080;2023-07-16T15:05:21;25.90;58.50
24144;DHT22;12307;50.828;6.080;2023-07-16T15:07:46;25.90;58.60
24144;DHT22;12307;50.828;6.080;2023-07-16T15:10:14;25.90;58.60
24144;DHT22;12307;50.828;6.080;2023-07-16T15:12:40;25.90;58.60
24144;DHT22;12307;50.828;6.080;2023-07-16T15:15:07;25.90;58.60
24144;DHT22;12307;50.828;6.080;2023-07-16T15:17:33;25.80;58.60
24144;DHT22;12307;50.828;6.080;2023-07-16T15:19:58;25.80;58.60
24144;DHT22;12307;50.828;6.080;2023-07-16T15:22:24;25.80;58.60
24144;DHT22;12307;50.828;6.080;2023-07-16T15:24:50;25.80;58.70
24144;DHT22;12307;50.828;6.080;2023-07-16T15:27:17;25.70;58.60